sensor_id;sensor_type;location;lat;lon;timestamp;pressure;altitude;pressure_sealevel;temperature;humidity
32759;BME280;19125;52.360;9.974;2023-04-19T00:01:02;86649.66;;;-145.17;34.09
32759;BME280;19125;52.360;9.974;2023-04-19T00:03:28;86633.78;;;-145.17;33.31
32759;BME280;19125;52.360;9.974;2023-04-19T00:05:54;86625.81;;;-145.17;33.39
32759;BME280;19125;52.360;9.974;2023-04-19T00:08:23;86627.81;;;-145.17;33.59
32759;BME280;19125;52.360;9.974;2023-04-19T00:10:48;86635.75;;;-145.17;33.81
32759;BME280;19125;52.360;9.974;2023-04-19T00:13:14;86643.69;;;-145.17;33.29
32759;BME280;19125;52.360;9.974;2023-04-19T00:15:39;86663.53;;;-145.17;33.01
32759;BME280;19125;52.360;9.974;2023-04-19T00:18:05;86623.84;;;-145.17;33.58
32759;BME280;19125;52.360;9.974;2023-04-19T00:20:31;86657.59;;;-145.17;34.08
32759;BME280;19125;52.360;9.974;2023-04-19T00:22:57;86615.91;;;-145.17;34.52
32759;BME280;19125;52.360;9.974;2023-04-19T00:25:23;86683.38;;;-145.17;34.54
32759;BME280;19125;52.360;9.974;2023-04-19T00:27:49;86762.78;;;-145.17;34.50
32759;BME280;19125;52.360;9.974;2023-04-19T00:30:15;86778.66;;;-145.17;34.88
32759;BME280;19125;52.360;9.974;2023-04-19T00:32:44;86675.44;;;-145.17;35.35
32759;BME280;19125;52.360;9.974;2023-04-19T00:35:10;86748.88;;;-145.17;35.15
32759;BME280;19125;52.360;9.974;2023-04-19T00:37:36;86766.75;;;-145.17;35.87
32759;BME280;19125;52.360;9.974;2023-04-19T00:40:01;86748.88;;;-145.17;35.89
32759;BME280;19125;52.360;9.974;2023-04-19T00:42:28;86760.78;;;-145.17;35.88
32759;BME280;19125;52.360;9.974;2023-04-19T00:44:53;86770.72;;;-145.17;36.47
32759;BME280;19125;52.360;9.974;2023-04-19T00:47:19;86800.47;;;-145.17;36.75
32759;BME280;19125;52.360;9.974;2023-04-19T00:49:45;86750.88;;;-145.17;36.75
32759;BME280;19125;52.360;9.974;2023-04-19T00:52:11;86766.75;;;-145.17;37.41
32759;BME280;19125;52.360;9.974;2023-04-19T00:54:38;86822.31;;;-145.17;37.48
32759;BME280;19125;52.360;9.974;2023-04-19T00:57:10;86826.28;;;-145.17;37.47
32759;BME280;19125;52.360;9.974;2023-04-19T00:59:36;86838.19;;;-145.17;37.89
32759;BME280;19125;52.360;9.974;2023-04-19T01:02:03;86842.16;;;-145.17;38.62
32759;BME280;19125;52.360;9.974;2023-04-19T01:04:30;86826.28;;;-145.17;38.96
32759;BME280;19125;52.360;9.974;2023-04-19T01:06:56;86921.53;;;-145.17;38.63
32759;BME280;19125;52.360;9.974;2023-04-19T01:09:25;86895.75;;;-145.17;39.31
32759;BME280;19125;52.360;9.974;2023-04-19T01:11:51;86945.38;;;-145.17;39.49
32759;BME280;19125;52.360;9.974;2023-04-19T01:14:18;86867.97;;;-145.17;39.71
32759;BME280;19125;52.360;9.974;2023-04-19T01:16:44;86846.13;;;-145.17;39.58
32759;BME280;19125;52.360;9.974;2023-04-19T01:19:10;86909.63;;;-145.17;39.97
32759;BME280;19125;52.360;9.974;2023-04-19T01:21:36;86887.81;;;-145.17;40.20
32759;BME280;19125;52.360;9.974;2023-04-19T01:24:07;86879.88;;;-145.17;40.45
32759;BME280;19125;52.360;9.974;2023-04-19T01:26:35;86909.63;;;-145.17;40.59
32759;BME280;19125;52.360;9.974;2023-04-19T01:29:01;86927.50;;;-145.17;40.79
32759;BME280;19125;52.360;9.974;2023-04-19T01:31:32;86907.66;;;-145.17;40.98
32759;BME280;19125;52.360;9.974;2023-04-19T01:33:58;86911.63;;;-145.17;41.17
32759;BME280;19125;52.360;9.974;2023-04-19T01:36:25;86985.06;;;-145.17;41.24
32759;BME280;19125;52.360;9.974;2023-04-19T01:38:51;86955.28;;;-145.17;41.01
32759;BME280;19125;52.360;9.974;2023-04-19T01:41:17;86953.31;;;-145.17;41.86
32759;BME280;19125;52.360;9.974;2023-04-19T01:43:44;86955.28;;;-145.17;42.07
32759;BME280;19125;52.360;9.974;2023-04-19T01:46:09;86917.56;;;-145.17;42.31
32759;BME280;19125;52.360;9.974;2023-04-19T01:48:35;86935.44;;;-145.17;42.61
32759;BME280;19125;52.360;9.974;2023-04-19T01:51:00;86919.56;;;-145.17;42.22
32759;BME280;19125;52.360;9.974;2023-04-19T01:53:26;86965.22;;;-145.17;42.78
32759;BME280;19125;52.360;9.974;2023-04-19T01:55:53;86969.19;;;-145.17;43.01
32759;BME280;19125;52.360;9.974;2023-04-19T01:58:20;86897.72;;;-145.17;42.94
32759;BME280;19125;52.360;9.974;2023-04-19T02:00:47;86975.13;;;-145.17;43.36
32759;BME280;19125;52.360;9.974;2023-04-19T02:03:13;86996.97;;;-145.17;43.66
32759;BME280;19125;52.360;9.974;2023-04-19T02:05:39;87016.81;;;-145.17;43.71
32759;BME280;19125;52.360;9.974;2023-04-19T02:08:08;86994.97;;;-145.17;43.92
32759;BME280;19125;52.360;9.974;2023-04-19T02:10:35;86921.53;;;-145.17;43.95
32759;BME280;19125;52.360;9.974;2023-04-19T02:13:00;86998.94;;;-145.17;44.04
32759;BME280;19125;52.360;9.974;2023-04-19T02:15:26;86961.25;;;-145.17;44.42
32759;BME280;19125;52.360;9.974;2023-04-19T02:17:51;87000.94;;;-145.17;44.28
32759;BME280;19125;52.360;9.974;2023-04-19T02:20:16;86987.03;;;-145.17;44.33
32759;BME280;19125;52.360;9.974;2023-04-19T02:22:42;87052.53;;;-145.17;44.75
32759;BME280;19125;52.360;9.974;2023-04-19T02:25:08;86996.97;;;-145.17;44.93
32759;BME280;19125;52.360;9.974;2023-04-19T02:27:33;87052.53;;;-145.17;45.11
32759;BME280;19125;52.360;9.974;2023-04-19T02:29:59;87002.91;;;-145.17;45.24
32759;BME280;19125;52.360;9.974;2023-04-19T02:32:27;87120.03;;;-145.17;45.27
32759;BME280;19125;52.360;9.974;2023-04-19T02:34:53;87058.50;;;-145.17;45.45
32759;BME280;19125;52.360;9.974;2023-04-19T02:37:20;87074.38;;;-145.17;45.81
32759;BME280;19125;52.360;9.974;2023-04-19T02:39:49;87072.38;;;-145.17;45.39
32759;BME280;19125;52.360;9.974;2023-04-19T02:42:16;87006.88;;;-145.17;45.89
32759;BME280;19125;52.360;9.974;2023-04-19T02:44:41;87064.44;;;-145.17;45.80
32759;BME280;19125;52.360;9.974;2023-04-19T02:47:07;87116.06;;;-145.17;46.25
32759;BME280;19125;52.360;9.974;2023-04-19T02:49:33;87060.47;;;-145.17;45.99
32759;BME280;19125;52.360;9.974;2023-04-19T02:52:01;87058.50;;;-145.17;46.28
32759;BME280;19125;52.360;9.974;2023-04-19T02:54:26;87084.28;;;-145.17;46.10
32759;BME280;19125;52.360;9.974;2023-04-19T02:56:51;87048.56;;;-145.17;46.30
32759;BME280;19125;52.360;9.974;2023-04-19T02:59:17;87034.69;;;-145.17;46.11
32759;BME280;19125;52.360;9.974;2023-04-19T03:01:42;87024.75;;;-145.17;46.50
32759;BME280;19125;52.360;9.974;2023-04-19T03:04:07;87116.06;;;-145.17;46.40
32759;BME280;19125;52.360;9.974;2023-04-19T03:06:33;87028.72;;;-145.17;46.56
32759;BME280;19125;52.360;9.974;2023-04-19T03:08:58;87024.75;;;-145.17;46.98
32759;BME280;19125;52.360;9.974;2023-04-19T03:11:23;87064.44;;;-145.17;46.82
32759;BME280;19125;52.360;9.974;2023-04-19T03:13:49;87092.25;;;-145.17;46.80
32759;BME280;19125;52.360;9.974;2023-04-19T03:16:14;87000.94;;;-145.17;47.11
32759;BME280;19125;52.360;9.974;2023-04-19T03:18:40;87104.16;;;-145.17;47.04
32759;BME280;19125;52.360;9.974;2023-04-19T03:21:05;87161.72;;;-145.17;46.78
32759;BME280;19125;52.360;9.974;2023-04-19T03:23:33;87104.16;;;-145.17;46.83
32759;BME280;19125;52.360;9.974;2023-04-19T03:25:59;87034.69;;;-145.17;47.42
32759;BME280;19125;52.360;9.974;2023-04-19T03:28:24;87084.28;;;-145.17;47.16
32759;BME280;19125;52.360;9.974;2023-04-19T03:30:49;87060.47;;;-145.17;47.48
32759;BME280;19125;52.360;9.974;2023-04-19T03:33:15;87181.56;;;-145.17;47.52
32759;BME280;19125;52.360;9.974;2023-04-19T03:35:40;87078.34;;;-145.17;47.52
32759;BME280;19125;52.360;9.974;2023-04-19T03:38:05;87118.03;;;-145.17;47.46
32759;BME280;19125;52.360;9.974;2023-04-19T03:40:36;87106.13;;;-145.17;47.88
32759;BME280;19125;52.360;9.974;2023-04-19T03:43:01;87110.09;;;-145.17;47.81
32759;BME280;19125;52.360;9.974;2023-04-19T03:45:27;87118.03;;;-145.17;47.71
32759;BME280;19125;52.360;9.974;2023-04-19T03:47:52;87143.84;;;-145.17;47.98
32759;BME280;19125;52.360;9.974;2023-04-19T03:50:18;87084.28;;;-145.17;48.21
32759;BME280;19125;52.360;9.974;2023-04-19T03:52:43;87094.22;;;-145.17;48.13
32759;BME280;19125;52.360;9.974;2023-04-19T03:55:09;87084.28;;;-145.17;47.92
32759;BME280;19125;52.360;9.974;2023-04-19T03:57:35;87112.09;;;-145.17;48.33
32759;BME280;19125;52.360;9.974;2023-04-19T04:00:00;87110.09;;;-145.17;48.27
32759;BME280;19125;52.360;9.974;2023-04-19T04:02:25;87124.00;;;-145.17;48.25
32759;BME280;19125;52.360;9.974;2023-04-19T04:04:54;87159.72;;;-145.17;48.34
32759;BME280;19125;52.360;9.974;2023-04-19T04:07:19;87088.28;;;-145.17;48.03
32759;BME280;19125;52.360;9.974;2023-04-19T04:09:46;87120.03;;;-145.17;47.98
32759;BME280;19125;52.360;9.974;2023-04-19T04:12:12;87088.28;;;-145.17;48.14
32759;BME280;19125;52.360;9.974;2023-04-19T04:14:37;87108.13;;;-145.17;48.20
32759;BME280;19125;52.360;9.974;2023-04-19T04:17:03;87167.66;;;-145.17;48.33
32759;BME280;19125;52.360;9.974;2023-04-19T04:19:28;87120.03;;;-145.17;48.18
32759;BME280;19125;52.360;9.974;2023-04-19T04:21:53;87124.00;;;-145.17;47.89
32759;BME280;19125;52.360;9.974;2023-04-19T04:24:19;87048.56;;;-145.17;48.02
32759;BME280;19125;52.360;9.974;2023-04-19T04:26:46;87125.97;;;-145.17;48.03
32759;BME280;19125;52.360;9.974;2023-04-19T04:29:14;87104.16;;;-145.17;48.15
32759;BME280;19125;52.360;9.974;2023-04-19T04:31:39;87052.53;;;-145.17;48.21
32759;BME280;19125;52.360;9.974;2023-04-19T04:34:05;87135.91;;;-145.17;48.24
32759;BME280;19125;52.360;9.974;2023-04-19T04:36:33;87104.16;;;-145.17;48.26
32759;BME280;19125;52.360;9.974;2023-04-19T04:39:01;87137.88;;;-145.17;48.15
32759;BME280;19125;52.360;9.974;2023-04-19T04:41:28;87104.16;;;-145.17;47.75
32759;BME280;19125;52.360;9.974;2023-04-19T04:43:58;87056.50;;;-145.17;47.83
32759;BME280;19125;52.360;9.974;2023-04-19T04:46:25;87086.28;;;-145.17;47.47
32759;BME280;19125;52.360;9.974;2023-04-19T04:48:51;87088.28;;;-145.17;47.84
32759;BME280;19125;52.360;9.974;2023-04-19T04:51:17;87106.13;;;-145.17;47.70
32759;BME280;19125;52.360;9.974;2023-04-19T04:53:42;87106.13;;;-145.17;47.71
32759;BME280;19125;52.360;9.974;2023-04-19T04:56:10;87108.13;;;-145.17;47.48
32759;BME280;19125;52.360;9.974;2023-04-19T04:58:36;87044.59;;;-145.17;47.37
32759;BME280;19125;52.360;9.974;2023-04-19T05:01:02;87066.44;;;-145.17;47.10
32759;BME280;19125;52.360;9.974;2023-04-19T05:03:28;87116.06;;;-145.17;47.03
32759;BME280;19125;52.360;9.974;2023-04-19T05:05:54;87040.63;;;-145.17;46.98
32759;BME280;19125;52.360;9.974;2023-04-19T05:08:20;87056.50;;;-145.17;46.66
32759;BME280;19125;52.360;9.974;2023-04-19T05:10:48;87050.56;;;-145.17;46.50
32759;BME280;19125;52.360;9.974;2023-04-19T05:13:14;87048.56;;;-145.17;46.52
32759;BME280;19125;52.360;9.974;2023-04-19T05:15:40;87024.75;;;-145.17;46.36
32759;BME280;19125;52.360;9.974;2023-04-19T05:18:05;87135.91;;;-145.17;46.56
32759;BME280;19125;52.360;9.974;2023-04-19T05:20:31;87028.72;;;-145.17;46.41
32759;BME280;19125;52.360;9.974;2023-04-19T05:22:58;87026.75;;;-145.17;46.61
32759;BME280;19125;52.360;9.974;2023-04-19T05:25:25;86983.06;;;-145.17;46.58
32759;BME280;19125;52.360;9.974;2023-04-19T05:27:50;86996.97;;;-145.17;45.92
32759;BME280;19125;52.360;9.974;2023-04-19T05:30:16;86996.97;;;-145.17;45.64
32759;BME280;19125;52.360;9.974;2023-04-19T05:32:41;87044.59;;;-145.17;45.99
32759;BME280;19125;52.360;9.974;2023-04-19T05:35:07;86961.25;;;-145.17;45.65
32759;BME280;19125;52.360;9.974;2023-04-19T05:37:34;86985.06;;;-145.17;45.82
32759;BME280;19125;52.360;9.974;2023-04-19T05:40:01;86981.09;;;-145.17;45.57
32759;BME280;19125;52.360;9.974;2023-04-19T05:42:30;86991.00;;;-145.17;45.43
32759;BME280;19125;52.360;9.974;2023-04-19T05:44:56;86933.44;;;-145.17;45.45
32759;BME280;19125;52.360;9.974;2023-04-19T05:47:21;86915.59;;;-145.17;45.37
32759;BME280;19125;52.360;9.974;2023-04-19T05:49:46;86973.16;;;-145.17;44.99
32759;BME280;19125;52.360;9.974;2023-04-19T05:52:12;86897.72;;;-145.17;44.88
32759;BME280;19125;52.360;9.974;2023-04-19T05:54:37;86905.66;;;-145.17;44.83
32759;BME280;19125;52.360;9.974;2023-04-19T05:57:03;86899.72;;;-145.17;44.50
32759;BME280;19125;52.360;9.974;2023-04-19T05:59:28;86883.84;;;-145.17;43.88
32759;BME280;19125;52.360;9.974;2023-04-19T06:01:53;86929.47;;;-145.17;44.17
32759;BME280;19125;52.360;9.974;2023-04-19T06:04:20;86893.75;;;-145.17;43.59
32759;BME280;19125;52.360;9.974;2023-04-19T06:06:46;86842.16;;;-145.17;43.72
32759;BME280;19125;52.360;9.974;2023-04-19T06:09:14;86844.13;;;-145.17;43.69
32759;BME280;19125;52.360;9.974;2023-04-19T06:11:40;86879.88;;;-145.17;43.31
32759;BME280;19125;52.360;9.974;2023-04-19T06:14:05;86867.97;;;-145.17;43.13
32759;BME280;19125;52.360;9.974;2023-04-19T06:16:31;86852.09;;;-145.17;42.50
32759;BME280;19125;52.360;9.974;2023-04-19T06:18:56;86842.16;;;-145.17;42.24
32759;BME280;19125;52.360;9.974;2023-04-19T06:21:22;86883.84;;;-145.17;42.43
32759;BME280;19125;52.360;9.974;2023-04-19T06:23:50;86814.38;;;-145.17;42.23
32759;BME280;19125;52.360;9.974;2023-04-19T06:26:16;86822.31;;;-145.17;41.97
32759;BME280;19125;52.360;9.974;2023-04-19T06:28:42;86800.47;;;-145.17;42.06
32759;BME280;19125;52.360;9.974;2023-04-19T06:31:08;86824.28;;;-145.17;41.40
32759;BME280;19125;52.360;9.974;2023-04-19T06:33:34;86794.53;;;-145.17;41.05
32759;BME280;19125;52.360;9.974;2023-04-19T06:35:59;86764.75;;;-145.17;41.30
32759;BME280;19125;52.360;9.974;2023-04-19T06:38:25;86764.75;;;-145.17;40.69
32759;BME280;19125;52.360;9.974;2023-04-19T06:40:50;86852.09;;;-145.17;40.78
32759;BME280;19125;52.360;9.974;2023-04-19T06:43:16;86826.28;;;-145.17;40.68
32759;BME280;19125;52.360;9.974;2023-04-19T06:45:41;86796.50;;;-145.17;40.63
32759;BME280;19125;52.360;9.974;2023-04-19T06:48:13;86770.72;;;-145.17;40.42
32759;BME280;19125;52.360;9.974;2023-04-19T06:50:38;86806.44;;;-145.17;40.39
32759;BME280;19125;52.360;9.974;2023-04-19T06:53:04;86778.66;;;-145.17;39.96
32759;BME280;19125;52.360;9.974;2023-04-19T06:55:29;86810.41;;;-145.17;39.61
32759;BME280;19125;52.360;9.974;2023-04-19T06:57:55;86750.88;;;-145.17;39.48
32759;BME280;19125;52.360;9.974;2023-04-19T07:00:21;86818.34;;;-145.17;39.26
32759;BME280;19125;52.360;9.974;2023-04-19T07:02:50;86814.38;;;-145.17;39.47
32759;BME280;19125;52.360;9.974;2023-04-19T07:05:17;86780.63;;;-145.17;40.05
32759;BME280;19125;52.360;9.974;2023-04-19T07:07:43;86754.84;;;-145.17;39.04
32759;BME280;19125;52.360;9.974;2023-04-19T07:10:09;86762.78;;;-145.17;39.36
32759;BME280;19125;52.360;9.974;2023-04-19T07:12:35;86854.06;;;-145.17;39.12
32759;BME280;19125;52.360;9.974;2023-04-19T07:15:01;86701.25;;;-145.17;39.43
32759;BME280;19125;52.360;9.974;2023-04-19T07:17:27;86711.16;;;-145.17;39.15
32759;BME280;19125;52.360;9.974;2023-04-19T07:19:52;86707.19;;;-145.17;38.51
32759;BME280;19125;52.360;9.974;2023-04-19T07:22:18;86703.22;;;-145.17;38.59
32759;BME280;19125;52.360;9.974;2023-04-19T07:24:44;86731.00;;;-145.17;37.57
32759;BME280;19125;52.360;9.974;2023-04-19T07:27:10;86715.13;;;-145.17;37.80
32759;BME280;19125;52.360;9.974;2023-04-19T07:29:36;86703.22;;;-145.17;37.90
32759;BME280;19125;52.360;9.974;2023-04-19T07:32:02;86685.38;;;-145.17;37.06
32759;BME280;19125;52.360;9.974;2023-04-19T07:34:27;86643.69;;;-145.17;37.95
32759;BME280;19125;52.360;9.974;2023-04-19T07:36:52;86685.38;;;-145.17;37.77
32759;BME280;19125;52.360;9.974;2023-04-19T07:39:18;86615.91;;;-145.17;37.87
32759;BME280;19125;52.360;9.974;2023-04-19T07:41:44;86643.69;;;-145.17;36.36
32759;BME280;19125;52.360;9.974;2023-04-19T07:44:09;86635.75;;;-145.17;36.87
32759;BME280;19125;52.360;9.974;2023-04-19T07:46:36;86611.94;;;-145.17;36.73
32759;BME280;19125;52.360;9.974;2023-04-19T07:49:02;86554.38;;;-145.17;36.09
32759;BME280;19125;52.360;9.974;2023-04-19T07:51:27;86611.94;;;-145.17;36.93
32759;BME280;19125;52.360;9.974;2023-04-19T07:53:58;86556.38;;;-145.17;36.84
32759;BME280;19125;52.360;9.974;2023-04-19T07:56:23;86504.78;;;-145.17;35.60
32759;BME280;19125;52.360;9.974;2023-04-19T07:58:50;86528.59;;;-145.17;35.10
32759;BME280;19125;52.360;9.974;2023-04-19T08:01:15;86508.75;;;-145.17;35.28
32759;BME280;19125;52.360;9.974;2023-04-19T08:03:41;86522.63;;;-145.17;34.19
32759;BME280;19125;52.360;9.974;2023-04-19T08:06:07;86554.38;;;-145.17;34.33
32759;BME280;19125;52.360;9.974;2023-04-19T08:08:33;86471.03;;;-145.17;34.32
32759;BME280;19125;52.360;9.974;2023-04-19T08:10:59;86459.13;;;-145.17;32.91
32759;BME280;19125;52.360;9.974;2023-04-19T08:13:27;86451.19;;;-145.17;32.91
32759;BME280;19125;52.360;9.974;2023-04-19T08:15:52;86492.88;;;-145.17;32.02
32759;BME280;19125;52.360;9.974;2023-04-19T08:18:18;86461.09;;;-145.17;32.30
32759;BME280;19125;52.360;9.974;2023-04-19T08:20:45;86361.88;;;-145.17;31.20
32759;BME280;19125;52.360;9.974;2023-04-19T08:23:11;86441.25;;;-145.17;30.88
32759;BME280;19125;52.360;9.974;2023-04-19T08:25:39;86457.16;;;-145.17;30.40
32759;BME280;19125;52.360;9.974;2023-04-19T08:28:05;86484.94;;;-145.17;30.06
32759;BME280;19125;52.360;9.974;2023-04-19T08:30:31;86478.97;;;-145.17;31.29
32759;BME280;19125;52.360;9.974;2023-04-19T08:32:59;86449.19;;;-145.17;31.54
32759;BME280;19125;52.360;9.974;2023-04-19T08:35:25;86369.81;;;-145.17;30.37
32759;BME280;19125;52.360;9.974;2023-04-19T08:37:51;86413.47;;;-145.17;30.39
32759;BME280;19125;52.360;9.974;2023-04-19T08:40:17;86441.25;;;-145.17;29.96
32759;BME280;19125;52.360;9.974;2023-04-19T08:42:42;86435.31;;;-145.17;30.69
32759;BME280;19125;52.360;9.974;2023-04-19T08:45:08;86399.59;;;-145.17;30.54
32759;BME280;19125;52.360;9.974;2023-04-19T08:47:38;86439.28;;;-145.17;29.51
32759;BME280;19125;52.360;9.974;2023-04-19T08:50:05;86461.09;;;-145.17;30.10
32759;BME280;19125;52.360;9.974;2023-04-19T08:52:36;86381.72;;;-145.17;29.03
32759;BME280;19125;52.360;9.974;2023-04-19T08:55:06;86397.59;;;-145.17;28.61
32759;BME280;19125;52.360;9.974;2023-04-19T08:57:33;86417.44;;;-145.17;29.19
32759;BME280;19125;52.360;9.974;2023-04-19T08:59:59;86397.59;;;-145.17;29.38
32759;BME280;19125;52.360;9.974;2023-04-19T09:02:25;86393.63;;;-145.17;28.16
32759;BME280;19125;52.360;9.974;2023-04-19T09:04:51;86326.16;;;-145.17;29.79
32759;BME280;19125;52.360;9.974;2023-04-19T09:07:26;86349.97;;;-145.17;28.09
32759;BME280;19125;52.360;9.974;2023-04-19T09:10:06;86294.41;;;-145.17;28.25
32759;BME280;19125;52.360;9.974;2023-04-19T09:12:33;86330.13;;;-145.17;27.92
32759;BME280;19125;52.360;9.974;2023-04-19T09:14:59;86314.25;;;-145.17;27.58
32759;BME280;19125;52.360;9.974;2023-04-19T09:17:26;86334.09;;;-145.17;26.82
32759;BME280;19125;52.360;9.974;2023-04-19T09:19:52;86284.50;;;-145.17;27.17
32759;BME280;19125;52.360;9.974;2023-04-19T09:22:17;86342.03;;;-145.17;26.69
32759;BME280;19125;52.360;9.974;2023-04-19T09:24:43;86385.69;;;-145.17;26.46
32759;BME280;19125;52.360;9.974;2023-04-19T09:27:09;86312.28;;;-145.17;26.03
32759;BME280;19125;52.360;9.974;2023-04-19T09:29:37;86300.38;;;-145.17;25.32
32759;BME280;19125;52.360;9.974;2023-04-19T09:32:02;86286.47;;;-145.17;26.02
32759;BME280;19125;52.360;9.974;2023-04-19T09:34:28;86302.34;;;-145.17;26.32
32759;BME280;19125;52.360;9.974;2023-04-19T09:36:55;86286.47;;;-145.17;25.84
32759;BME280;19125;52.360;9.974;2023-04-19T09:39:30;86234.88;;;-145.17;26.34
32759;BME280;19125;52.360;9.974;2023-04-19T09:41:55;86264.66;;;-145.17;26.20
32759;BME280;19125;52.360;9.974;2023-04-19T09:44:22;86201.16;;;-145.17;25.68
32759;BME280;19125;52.360;9.974;2023-04-19T09:46:48;86258.69;;;-145.17;24.77
32759;BME280;19125;52.360;9.974;2023-04-19T09:49:20;86250.75;;;-145.17;24.64
32759;BME280;19125;52.360;9.974;2023-04-19T09:51:54;86234.88;;;-145.17;24.75
32759;BME280;19125;52.360;9.974;2023-04-19T09:54:22;86282.50;;;-145.17;25.04
32759;BME280;19125;52.360;9.974;2023-04-19T09:56:48;86282.50;;;-145.17;24.95
32759;BME280;19125;52.360;9.974;2023-04-19T09:59:14;86197.19;;;-145.17;25.39
32759;BME280;19125;52.360;9.974;2023-04-19T10:01:45;86123.75;;;-145.17;25.67
32759;BME280;19125;52.360;9.974;2023-04-19T10:04:15;86215.03;;;-145.17;24.76
32759;BME280;19125;52.360;9.974;2023-04-19T10:06:48;86207.09;;;-145.17;24.57
32759;BME280;19125;52.360;9.974;2023-04-19T10:09:14;86197.19;;;-145.17;24.46
32759;BME280;19125;52.360;9.974;2023-04-19T10:11:43;86139.63;;;-145.17;23.56
32759;BME280;19125;52.360;9.974;2023-04-19T10:14:14;86129.72;;;-145.17;23.84
32759;BME280;19125;52.360;9.974;2023-04-19T10:16:41;86097.97;;;-145.17;22.65
32759;BME280;19125;52.360;9.974;2023-04-19T10:19:10;86149.56;;;-145.17;22.85
32759;BME280;19125;52.360;9.974;2023-04-19T10:21:36;86074.16;;;-145.17;21.74
32759;BME280;19125;52.360;9.974;2023-04-19T10:24:03;86080.09;;;-145.17;22.04
32759;BME280;19125;52.360;9.974;2023-04-19T10:26:29;86161.47;;;-145.17;20.83
32759;BME280;19125;52.360;9.974;2023-04-19T10:29:15;86183.28;;;-145.17;20.74
32759;BME280;19125;52.360;9.974;2023-04-19T10:32:04;86153.53;;;-145.17;20.66
32759;BME280;19125;52.360;9.974;2023-04-19T10:34:36;86155.50;;;-145.17;20.58
32759;BME280;19125;52.360;9.974;2023-04-19T10:37:02;86090.03;;;-145.17;20.29
32759;BME280;19125;52.360;9.974;2023-04-19T10:39:42;86099.94;;;-145.17;21.00
32759;BME280;19125;52.360;9.974;2023-04-19T10:42:07;86068.19;;;-145.17;21.27
32759;BME280;19125;52.360;9.974;2023-04-19T10:44:33;86088.03;;;-145.17;20.17
32759;BME280;19125;52.360;9.974;2023-04-19T10:46:58;86088.03;;;-145.17;20.20
32759;BME280;19125;52.360;9.974;2023-04-19T10:49:25;86056.28;;;-145.17;20.46
32759;BME280;19125;52.360;9.974;2023-04-19T10:51:52;86060.25;;;-145.17;20.51
32759;BME280;19125;52.360;9.974;2023-04-19T10:54:29;86080.09;;;-145.17;20.27
32759;BME280;19125;52.360;9.974;2023-04-19T10:56:56;86048.34;;;-145.17;20.62
32759;BME280;19125;52.360;9.974;2023-04-19T10:59:25;86066.22;;;-145.17;21.25
32759;BME280;19125;52.360;9.974;2023-04-19T11:01:58;86088.03;;;-145.17;20.93
32759;BME280;19125;52.360;9.974;2023-04-19T11:07:03;86040.41;;;-145.17;21.36
32759;BME280;19125;52.360;9.974;2023-04-19T11:09:34;86052.31;;;-145.17;20.93
32759;BME280;19125;52.360;9.974;2023-04-19T11:12:06;86048.34;;;-145.17;20.95
32759;BME280;19125;52.360;9.974;2023-04-19T11:14:40;86076.13;;;-145.17;21.22
32759;BME280;19125;52.360;9.974;2023-04-19T11:17:29;86008.66;;;-145.17;21.54
32759;BME280;19125;52.360;9.974;2023-04-19T11:20:06;86004.69;;;-145.17;21.94
32759;BME280;19125;52.360;9.974;2023-04-19T11:22:44;86014.63;;;-145.17;20.08
32759;BME280;19125;52.360;9.974;2023-04-19T11:25:11;86034.47;;;-145.17;20.66
32759;BME280;19125;52.360;9.974;2023-04-19T11:27:39;86084.06;;;-145.17;20.78
32759;BME280;19125;52.360;9.974;2023-04-19T11:30:06;86133.69;;;-145.17;21.19
32759;BME280;19125;52.360;9.974;2023-04-19T11:32:32;86052.31;;;-145.17;22.12
32759;BME280;19125;52.360;9.974;2023-04-19T11:35:03;86016.59;;;-145.17;22.05
32759;BME280;19125;52.360;9.974;2023-04-19T11:37:39;86044.38;;;-145.17;21.25
32759;BME280;19125;52.360;9.974;2023-04-19T11:40:06;86030.50;;;-145.17;20.90
32759;BME280;19125;52.360;9.974;2023-04-19T11:42:33;85968.97;;;-145.17;22.03
32759;BME280;19125;52.360;9.974;2023-04-19T11:45:01;86018.59;;;-145.17;21.31
32759;BME280;19125;52.360;9.974;2023-04-19T11:47:27;86018.59;;;-145.17;21.21
32759;BME280;19125;52.360;9.974;2023-04-19T11:49:56;85957.06;;;-145.17;22.20
32759;BME280;19125;52.360;9.974;2023-04-19T11:52:25;85990.81;;;-145.17;22.02
32759;BME280;19125;52.360;9.974;2023-04-19T11:54:52;86020.56;;;-145.17;21.27
32759;BME280;19125;52.360;9.974;2023-04-19T11:57:28;85921.34;;;-145.17;21.35
32759;BME280;19125;52.360;9.974;2023-04-19T12:00:07;85947.16;;;-145.17;21.68
32759;BME280;19125;52.360;9.974;2023-04-19T12:02:43;85968.97;;;-145.17;21.86
32759;BME280;19125;52.360;9.974;2023-04-19T12:05:10;85965.00;;;-145.17;21.62
32759;BME280;19125;52.360;9.974;2023-04-19T12:07:36;86020.56;;;-145.17;21.60
32759;BME280;19125;52.360;9.974;2023-04-19T12:10:09;86046.38;;;-145.17;21.97
32759;BME280;19125;52.360;9.974;2023-04-19T12:12:36;86008.66;;;-145.17;20.96
32759;BME280;19125;52.360;9.974;2023-04-19T12:15:03;85957.06;;;-145.17;21.95
32759;BME280;19125;52.360;9.974;2023-04-19T12:17:29;85984.84;;;-145.17;21.74
32759;BME280;19125;52.360;9.974;2023-04-19T12:19:54;86026.53;;;-145.17;21.49
32759;BME280;19125;52.360;9.974;2023-04-19T12:22:20;86105.91;;;-145.17;21.91
32759;BME280;19125;52.360;9.974;2023-04-19T12:24:46;86097.97;;;-145.17;21.94
32759;BME280;19125;52.360;9.974;2023-04-19T12:27:11;86028.50;;;-145.17;21.51
32759;BME280;19125;52.360;9.974;2023-04-19T12:29:37;85923.34;;;-145.17;22.54
32759;BME280;19125;52.360;9.974;2023-04-19T12:32:03;85980.88;;;-145.17;21.84
32759;BME280;19125;52.360;9.974;2023-04-19T12:34:29;85941.19;;;-145.17;21.79
32759;BME280;19125;52.360;9.974;2023-04-19T12:36:55;85953.09;;;-145.17;22.14
32759;BME280;19125;52.360;9.974;2023-04-19T12:39:20;86036.44;;;-145.17;21.84
32759;BME280;19125;52.360;9.974;2023-04-19T12:41:46;86010.66;;;-145.17;22.76